Big Sandy Regional (SJS)

 

Airport Diagram
No Airport Diagram Available
Current Weather/Forecast (VFR Conditions)
METAR KSJS 182235Z AUTO 30006KT 10SM OVC090 16/00 A2990 RMK AO2 T01550000
TAF KSJS 181825Z 1818/1918 VRB05KT P6SM BKN080 FM190000 VRB04KT P6SM SCT100 FM191600 27005KT P6SM FEW045

Airport Information

All Charts
General
Chart Name View
TAKEOFF MINIMUMS
ALTERNATE MINIMUMS
TAKEOFF MINIMUMS
ALTERNATE MINIMUMS

Approaches
Chart Name Download
RNAV (GPS) RWY 03
RNAV (GPS) RWY 21
RNAV (GPS) RWY 03
RNAV (GPS) RWY 21


Airport Statistics
Departures Arrivals Local
All Collected Stats since June 2016: 3 3 0
2021 Stats: 0 1 0
April Stats: 0 1 0

Inbound Traffic (Arrivals) - 0

No inbound traffic.


Outbound Traffic (Departures) - 0

No outbound traffic.


Local Traffic (Pattern) - 0

No local traffic.